sensor_id;sensor_type;location;lat;lon;timestamp;P1;durP1;ratioP1;P2;durP2;ratioP2
6205;SDS011;3136;48.788;9.772;2022-12-24T00:02:16;7.03;;;2.30;;
6205;SDS011;3136;48.788;9.772;2022-12-24T00:04:42;4.17;;;1.80;;
6205;SDS011;3136;48.788;9.772;2022-12-24T00:07:08;5.20;;;1.97;;
6205;SDS011;3136;48.788;9.772;2022-12-24T00:09:33;5.10;;;2.00;;
6205;SDS011;3136;48.788;9.772;2022-12-24T00:11:59;3.10;;;2.07;;
6205;SDS011;3136;48.788;9.772;2022-12-24T00:14:24;3.57;;;1.53;;
6205;SDS011;3136;48.788;9.772;2022-12-24T00:16:50;3.83;;;1.37;;
6205;SDS011;3136;48.788;9.772;2022-12-24T00:19:15;5.23;;;1.90;;
6205;SDS011;3136;48.788;9.772;2022-12-24T00:21:41;5.63;;;1.33;;
6205;SDS011;3136;48.788;9.772;2022-12-24T00:24:07;4.20;;;1.67;;
6205;SDS011;3136;48.788;9.772;2022-12-24T00:26:32;3.40;;;1.40;;
6205;SDS011;3136;48.788;9.772;2022-12-24T00:28:58;6.10;;;1.60;;
6205;SDS011;3136;48.788;9.772;2022-12-24T00:31:24;5.50;;;1.63;;
6205;SDS011;3136;48.788;9.772;2022-12-24T00:33:50;4.13;;;1.80;;
6205;SDS011;3136;48.788;9.772;2022-12-24T00:36:16;3.60;;;1.40;;
6205;SDS011;3136;48.788;9.772;2022-12-24T00:38:42;5.70;;;1.40;;
6205;SDS011;3136;48.788;9.772;2022-12-24T00:41:08;6.87;;;1.30;;
6205;SDS011;3136;48.788;9.772;2022-12-24T00:43:49;4.70;;;1.67;;
6205;SDS011;3136;48.788;9.772;2022-12-24T00:46:25;3.87;;;1.20;;
6205;SDS011;3136;48.788;9.772;2022-12-24T00:48:52;5.17;;;1.57;;
6205;SDS011;3136;48.788;9.772;2022-12-24T00:51:18;6.10;;;1.43;;
6205;SDS011;3136;48.788;9.772;2022-12-24T00:53:44;6.30;;;1.47;;
6205;SDS011;3136;48.788;9.772;2022-12-24T00:56:10;4.67;;;1.30;;
6205;SDS011;3136;48.788;9.772;2022-12-24T00:58:35;6.97;;;1.73;;
6205;SDS011;3136;48.788;9.772;2022-12-24T01:01:01;7.40;;;1.50;;
6205;SDS011;3136;48.788;9.772;2022-12-24T01:03:27;8.70;;;1.70;;
6205;SDS011;3136;48.788;9.772;2022-12-24T01:06:09;4.70;;;1.40;;
6205;SDS011;3136;48.788;9.772;2022-12-24T01:08:40;5.30;;;1.60;;
6205;SDS011;3136;48.788;9.772;2022-12-24T01:11:07;5.53;;;1.70;;
6205;SDS011;3136;48.788;9.772;2022-12-24T01:13:34;5.10;;;1.40;;
6205;SDS011;3136;48.788;9.772;2022-12-24T01:16:00;4.87;;;1.33;;
6205;SDS011;3136;48.788;9.772;2022-12-24T01:18:26;4.70;;;1.40;;
6205;SDS011;3136;48.788;9.772;2022-12-24T01:20:58;5.90;;;1.47;;
6205;SDS011;3136;48.788;9.772;2022-12-24T01:23:25;3.37;;;1.40;;
6205;SDS011;3136;48.788;9.772;2022-12-24T01:25:52;4.73;;;1.47;;
6205;SDS011;3136;48.788;9.772;2022-12-24T01:28:18;4.67;;;1.33;;
6205;SDS011;3136;48.788;9.772;2022-12-24T01:30:45;4.60;;;1.47;;
6205;SDS011;3136;48.788;9.772;2022-12-24T01:33:11;3.10;;;1.37;;
6205;SDS011;3136;48.788;9.772;2022-12-24T01:35:38;4.00;;;1.33;;
6205;SDS011;3136;48.788;9.772;2022-12-24T01:38:04;5.27;;;1.63;;
6205;SDS011;3136;48.788;9.772;2022-12-24T01:40:30;2.83;;;1.23;;
6205;SDS011;3136;48.788;9.772;2022-12-24T01:43:15;3.33;;;1.40;;
6205;SDS011;3136;48.788;9.772;2022-12-24T01:45:58;6.20;;;1.53;;
6205;SDS011;3136;48.788;9.772;2022-12-24T01:51:20;4.40;;;1.50;;
6205;SDS011;3136;48.788;9.772;2022-12-24T01:53:54;4.70;;;1.40;;
6205;SDS011;3136;48.788;9.772;2022-12-24T01:56:24;5.07;;;1.77;;
6205;SDS011;3136;48.788;9.772;2022-12-24T01:58:54;4.47;;;1.70;;
6205;SDS011;3136;48.788;9.772;2022-12-24T02:01:21;9.87;;;2.87;;
6205;SDS011;3136;48.788;9.772;2022-12-24T02:03:48;4.77;;;1.60;;
6205;SDS011;3136;48.788;9.772;2022-12-24T02:06:14;7.07;;;1.50;;
6205;SDS011;3136;48.788;9.772;2022-12-24T02:08:41;7.53;;;1.80;;
6205;SDS011;3136;48.788;9.772;2022-12-24T02:11:18;8.70;;;1.80;;
6205;SDS011;3136;48.788;9.772;2022-12-24T02:13:49;5.10;;;1.73;;
6205;SDS011;3136;48.788;9.772;2022-12-24T02:22:06;5.47;;;1.50;;
6205;SDS011;3136;48.788;9.772;2022-12-24T02:27:53;4.57;;;1.50;;
6205;SDS011;3136;48.788;9.772;2022-12-24T02:30:21;7.57;;;1.80;;
6205;SDS011;3136;48.788;9.772;2022-12-24T02:32:59;8.73;;;2.10;;
6205;SDS011;3136;48.788;9.772;2022-12-24T02:35:48;7.97;;;2.37;;
6205;SDS011;3136;48.788;9.772;2022-12-24T02:38:19;9.50;;;1.97;;
6205;SDS011;3136;48.788;9.772;2022-12-24T02:40:57;8.77;;;2.27;;
6205;SDS011;3136;48.788;9.772;2022-12-24T02:43:34;6.20;;;2.00;;
6205;SDS011;3136;48.788;9.772;2022-12-24T02:46:04;11.40;;;1.97;;
6205;SDS011;3136;48.788;9.772;2022-12-24T02:48:35;11.23;;;2.17;;
6205;SDS011;3136;48.788;9.772;2022-12-24T02:51:06;13.27;;;2.10;;
6205;SDS011;3136;48.788;9.772;2022-12-24T02:53:33;9.90;;;2.10;;
6205;SDS011;3136;48.788;9.772;2022-12-24T03:04:10;7.17;;;1.93;;
6205;SDS011;3136;48.788;9.772;2022-12-24T03:06:47;13.40;;;2.40;;
6205;SDS011;3136;48.788;9.772;2022-12-24T03:09:31;11.53;;;2.17;;
6205;SDS011;3136;48.788;9.772;2022-12-24T03:12:18;9.47;;;2.77;;
6205;SDS011;3136;48.788;9.772;2022-12-24T03:14:50;10.57;;;2.63;;
6205;SDS011;3136;48.788;9.772;2022-12-24T03:17:16;16.17;;;2.47;;
6205;SDS011;3136;48.788;9.772;2022-12-24T03:19:43;11.37;;;2.10;;
6205;SDS011;3136;48.788;9.772;2022-12-24T03:22:10;11.83;;;2.67;;
6205;SDS011;3136;48.788;9.772;2022-12-24T03:24:37;14.30;;;3.13;;
6205;SDS011;3136;48.788;9.772;2022-12-24T03:27:06;14.43;;;2.27;;
6205;SDS011;3136;48.788;9.772;2022-12-24T03:29:33;11.33;;;2.30;;
6205;SDS011;3136;48.788;9.772;2022-12-24T03:32:00;14.90;;;2.30;;
6205;SDS011;3136;48.788;9.772;2022-12-24T03:34:27;13.43;;;2.60;;
6205;SDS011;3136;48.788;9.772;2022-12-24T03:36:53;17.40;;;2.70;;
6205;SDS011;3136;48.788;9.772;2022-12-24T03:39:18;9.13;;;2.17;;
6205;SDS011;3136;48.788;9.772;2022-12-24T03:41:44;15.10;;;2.77;;
6205;SDS011;3136;48.788;9.772;2022-12-24T03:44:10;11.80;;;2.40;;
6205;SDS011;3136;48.788;9.772;2022-12-24T03:46:35;13.90;;;2.80;;
6205;SDS011;3136;48.788;9.772;2022-12-24T03:49:01;11.83;;;3.03;;
6205;SDS011;3136;48.788;9.772;2022-12-24T03:51:27;15.13;;;2.60;;
6205;SDS011;3136;48.788;9.772;2022-12-24T03:53:53;14.53;;;2.90;;
6205;SDS011;3136;48.788;9.772;2022-12-24T03:56:20;14.73;;;2.73;;
6205;SDS011;3136;48.788;9.772;2022-12-24T03:58:46;12.03;;;2.57;;
6205;SDS011;3136;48.788;9.772;2022-12-24T04:01:11;11.17;;;2.50;;
6205;SDS011;3136;48.788;9.772;2022-12-24T04:03:37;13.67;;;2.87;;
6205;SDS011;3136;48.788;9.772;2022-12-24T04:06:04;14.67;;;2.70;;
6205;SDS011;3136;48.788;9.772;2022-12-24T04:08:32;16.40;;;2.70;;
6205;SDS011;3136;48.788;9.772;2022-12-24T04:10:58;11.93;;;2.83;;
6205;SDS011;3136;48.788;9.772;2022-12-24T04:13:24;13.03;;;2.80;;
6205;SDS011;3136;48.788;9.772;2022-12-24T04:15:59;13.33;;;2.83;;
6205;SDS011;3136;48.788;9.772;2022-12-24T04:18:26;13.73;;;2.33;;
6205;SDS011;3136;48.788;9.772;2022-12-24T04:20:52;10.13;;;2.20;;
6205;SDS011;3136;48.788;9.772;2022-12-24T04:23:18;12.80;;;2.67;;
6205;SDS011;3136;48.788;9.772;2022-12-24T04:25:44;9.47;;;2.40;;
6205;SDS011;3136;48.788;9.772;2022-12-24T04:28:09;14.20;;;2.53;;
6205;SDS011;3136;48.788;9.772;2022-12-24T04:30:37;14.80;;;3.13;;
6205;SDS011;3136;48.788;9.772;2022-12-24T04:33:03;13.17;;;2.50;;
6205;SDS011;3136;48.788;9.772;2022-12-24T04:35:28;18.37;;;2.97;;
6205;SDS011;3136;48.788;9.772;2022-12-24T04:37:54;13.07;;;2.73;;
6205;SDS011;3136;48.788;9.772;2022-12-24T04:40:20;10.83;;;2.67;;
6205;SDS011;3136;48.788;9.772;2022-12-24T04:42:45;15.57;;;3.20;;
6205;SDS011;3136;48.788;9.772;2022-12-24T04:45:11;14.07;;;3.07;;
6205;SDS011;3136;48.788;9.772;2022-12-24T04:47:36;13.20;;;3.50;;
6205;SDS011;3136;48.788;9.772;2022-12-24T04:50:02;19.13;;;3.43;;
6205;SDS011;3136;48.788;9.772;2022-12-24T04:52:28;14.60;;;3.27;;
6205;SDS011;3136;48.788;9.772;2022-12-24T04:54:53;11.07;;;2.90;;
6205;SDS011;3136;48.788;9.772;2022-12-24T04:57:19;16.07;;;2.87;;
6205;SDS011;3136;48.788;9.772;2022-12-24T04:59:45;15.93;;;2.87;;
6205;SDS011;3136;48.788;9.772;2022-12-24T05:02:10;11.23;;;2.77;;
6205;SDS011;3136;48.788;9.772;2022-12-24T05:04:36;12.23;;;2.90;;
6205;SDS011;3136;48.788;9.772;2022-12-24T05:07:01;18.50;;;3.23;;
6205;SDS011;3136;48.788;9.772;2022-12-24T05:09:27;13.67;;;2.87;;
6205;SDS011;3136;48.788;9.772;2022-12-24T05:11:53;18.27;;;3.20;;
6205;SDS011;3136;48.788;9.772;2022-12-24T05:14:18;17.07;;;2.63;;
6205;SDS011;3136;48.788;9.772;2022-12-24T05:16:44;13.37;;;2.87;;
6205;SDS011;3136;48.788;9.772;2022-12-24T05:19:09;14.33;;;2.97;;
6205;SDS011;3136;48.788;9.772;2022-12-24T05:21:35;16.33;;;3.37;;
6205;SDS011;3136;48.788;9.772;2022-12-24T05:24:01;16.87;;;4.00;;
6205;SDS011;3136;48.788;9.772;2022-12-24T05:26:45;21.33;;;3.30;;
6205;SDS011;3136;48.788;9.772;2022-12-24T05:29:16;15.77;;;2.83;;
6205;SDS011;3136;48.788;9.772;2022-12-24T05:31:42;13.63;;;3.00;;
6205;SDS011;3136;48.788;9.772;2022-12-24T05:34:09;17.20;;;3.30;;
6205;SDS011;3136;48.788;9.772;2022-12-24T05:36:36;12.43;;;2.97;;
6205;SDS011;3136;48.788;9.772;2022-12-24T05:39:02;18.83;;;3.80;;
6205;SDS011;3136;48.788;9.772;2022-12-24T05:41:28;15.20;;;2.80;;
6205;SDS011;3136;48.788;9.772;2022-12-24T05:43:54;13.60;;;3.60;;
6205;SDS011;3136;48.788;9.772;2022-12-24T05:46:20;14.83;;;3.10;;
6205;SDS011;3136;48.788;9.772;2022-12-24T05:48:46;18.13;;;3.37;;
6205;SDS011;3136;48.788;9.772;2022-12-24T05:51:13;13.00;;;2.53;;
6205;SDS011;3136;48.788;9.772;2022-12-24T05:53:42;12.37;;;2.70;;
6205;SDS011;3136;48.788;9.772;2022-12-24T05:56:09;14.37;;;3.23;;
6205;SDS011;3136;48.788;9.772;2022-12-24T05:58:37;20.87;;;4.53;;
6205;SDS011;3136;48.788;9.772;2022-12-24T06:01:03;19.67;;;3.90;;
6205;SDS011;3136;48.788;9.772;2022-12-24T06:03:30;16.17;;;3.50;;
6205;SDS011;3136;48.788;9.772;2022-12-24T06:06:16;15.57;;;4.63;;
6205;SDS011;3136;48.788;9.772;2022-12-24T06:08:44;21.47;;;4.30;;
6205;SDS011;3136;48.788;9.772;2022-12-24T06:11:11;16.47;;;4.27;;
6205;SDS011;3136;48.788;9.772;2022-12-24T06:13:38;17.70;;;3.77;;
6205;SDS011;3136;48.788;9.772;2022-12-24T06:16:06;17.73;;;3.90;;
6205;SDS011;3136;48.788;9.772;2022-12-24T06:18:34;9.03;;;2.93;;
6205;SDS011;3136;48.788;9.772;2022-12-24T06:21:00;11.10;;;3.07;;
6205;SDS011;3136;48.788;9.772;2022-12-24T06:23:30;11.43;;;2.93;;
6205;SDS011;3136;48.788;9.772;2022-12-24T06:25:57;274.93;;;12.20;;
6205;SDS011;3136;48.788;9.772;2022-12-24T06:28:27;28.63;;;5.00;;
6205;SDS011;3136;48.788;9.772;2022-12-24T06:30:53;22.53;;;3.80;;
6205;SDS011;3136;48.788;9.772;2022-12-24T06:33:19;15.23;;;3.30;;
6205;SDS011;3136;48.788;9.772;2022-12-24T06:35:45;10.20;;;2.40;;
6205;SDS011;3136;48.788;9.772;2022-12-24T06:38:11;11.90;;;2.60;;
6205;SDS011;3136;48.788;9.772;2022-12-24T06:40:38;9.07;;;2.63;;
6205;SDS011;3136;48.788;9.772;2022-12-24T06:43:04;11.03;;;2.67;;
6205;SDS011;3136;48.788;9.772;2022-12-24T06:45:30;5.67;;;2.40;;
6205;SDS011;3136;48.788;9.772;2022-12-24T06:47:56;16.47;;;2.77;;
6205;SDS011;3136;48.788;9.772;2022-12-24T06:50:22;12.53;;;2.10;;
6205;SDS011;3136;48.788;9.772;2022-12-24T06:52:47;14.07;;;2.70;;
6205;SDS011;3136;48.788;9.772;2022-12-24T06:55:13;8.10;;;2.83;;
6205;SDS011;3136;48.788;9.772;2022-12-24T06:57:38;7.30;;;2.40;;
6205;SDS011;3136;48.788;9.772;2022-12-24T07:00:05;8.57;;;2.37;;
6205;SDS011;3136;48.788;9.772;2022-12-24T07:02:32;9.13;;;2.83;;
6205;SDS011;3136;48.788;9.772;2022-12-24T07:04:57;9.23;;;2.60;;
6205;SDS011;3136;48.788;9.772;2022-12-24T07:07:23;9.17;;;3.00;;
6205;SDS011;3136;48.788;9.772;2022-12-24T07:09:48;13.83;;;3.30;;
6205;SDS011;3136;48.788;9.772;2022-12-24T07:12:14;9.00;;;3.30;;
6205;SDS011;3136;48.788;9.772;2022-12-24T07:14:39;20.00;;;3.30;;
6205;SDS011;3136;48.788;9.772;2022-12-24T07:17:05;10.13;;;3.50;;
6205;SDS011;3136;48.788;9.772;2022-12-24T07:19:31;12.50;;;4.47;;
6205;SDS011;3136;48.788;9.772;2022-12-24T07:21:56;16.23;;;6.27;;
6205;SDS011;3136;48.788;9.772;2022-12-24T07:24:22;19.90;;;8.37;;
6205;SDS011;3136;48.788;9.772;2022-12-24T07:26:47;16.83;;;7.13;;
6205;SDS011;3136;48.788;9.772;2022-12-24T07:29:13;29.23;;;12.53;;
6205;SDS011;3136;48.788;9.772;2022-12-24T07:31:38;16.60;;;9.70;;
6205;SDS011;3136;48.788;9.772;2022-12-24T07:34:04;11.87;;;6.47;;
6205;SDS011;3136;48.788;9.772;2022-12-24T07:36:29;11.93;;;5.70;;
6205;SDS011;3136;48.788;9.772;2022-12-24T07:38:55;7.83;;;5.17;;
6205;SDS011;3136;48.788;9.772;2022-12-24T07:41:20;8.43;;;3.70;;
6205;SDS011;3136;48.788;9.772;2022-12-24T07:43:46;15.73;;;4.83;;
6205;SDS011;3136;48.788;9.772;2022-12-24T07:46:12;11.90;;;4.63;;
6205;SDS011;3136;48.788;9.772;2022-12-24T07:48:37;15.23;;;5.87;;
6205;SDS011;3136;48.788;9.772;2022-12-24T07:51:03;14.70;;;6.33;;
6205;SDS011;3136;48.788;9.772;2022-12-24T07:53:29;24.27;;;9.10;;
6205;SDS011;3136;48.788;9.772;2022-12-24T07:55:55;18.50;;;8.37;;
6205;SDS011;3136;48.788;9.772;2022-12-24T07:58:22;23.80;;;10.40;;
6205;SDS011;3136;48.788;9.772;2022-12-24T08:00:48;29.57;;;12.53;;
6205;SDS011;3136;48.788;9.772;2022-12-24T08:03:17;16.10;;;6.27;;
6205;SDS011;3136;48.788;9.772;2022-12-24T08:05:44;19.17;;;7.97;;
6205;SDS011;3136;48.788;9.772;2022-12-24T08:08:10;17.77;;;8.63;;
6205;SDS011;3136;48.788;9.772;2022-12-24T08:10:40;21.93;;;11.27;;
6205;SDS011;3136;48.788;9.772;2022-12-24T08:13:07;34.20;;;11.30;;
6205;SDS011;3136;48.788;9.772;2022-12-24T08:15:32;20.23;;;10.77;;
6205;SDS011;3136;48.788;9.772;2022-12-24T08:17:58;28.73;;;11.63;;
6205;SDS011;3136;48.788;9.772;2022-12-24T08:20:23;27.80;;;10.63;;
6205;SDS011;3136;48.788;9.772;2022-12-24T08:22:49;28.60;;;11.47;;
6205;SDS011;3136;48.788;9.772;2022-12-24T08:25:15;27.30;;;11.53;;
6205;SDS011;3136;48.788;9.772;2022-12-24T08:27:40;25.87;;;9.80;;
6205;SDS011;3136;48.788;9.772;2022-12-24T08:30:06;17.77;;;9.17;;
6205;SDS011;3136;48.788;9.772;2022-12-24T08:32:32;23.07;;;10.90;;
6205;SDS011;3136;48.788;9.772;2022-12-24T08:34:58;24.13;;;11.30;;
6205;SDS011;3136;48.788;9.772;2022-12-24T08:37:23;28.57;;;10.83;;
6205;SDS011;3136;48.788;9.772;2022-12-24T08:39:49;27.37;;;11.03;;
6205;SDS011;3136;48.788;9.772;2022-12-24T08:42:15;18.60;;;9.40;;
6205;SDS011;3136;48.788;9.772;2022-12-24T08:44:40;27.03;;;8.57;;
6205;SDS011;3136;48.788;9.772;2022-12-24T08:47:06;20.10;;;8.67;;
6205;SDS011;3136;48.788;9.772;2022-12-24T08:49:31;18.37;;;9.20;;
6205;SDS011;3136;48.788;9.772;2022-12-24T08:51:57;17.60;;;8.87;;
6205;SDS011;3136;48.788;9.772;2022-12-24T08:54:23;22.07;;;8.70;;
6205;SDS011;3136;48.788;9.772;2022-12-24T08:56:49;18.33;;;7.67;;
6205;SDS011;3136;48.788;9.772;2022-12-24T08:59:15;20.57;;;8.90;;
6205;SDS011;3136;48.788;9.772;2022-12-24T09:01:40;22.63;;;7.80;;
6205;SDS011;3136;48.788;9.772;2022-12-24T09:04:06;18.97;;;8.10;;
6205;SDS011;3136;48.788;9.772;2022-12-24T09:06:31;15.30;;;7.63;;
6205;SDS011;3136;48.788;9.772;2022-12-24T09:08:57;25.13;;;10.20;;
6205;SDS011;3136;48.788;9.772;2022-12-24T09:11:23;17.63;;;8.83;;
6205;SDS011;3136;48.788;9.772;2022-12-24T09:13:49;18.53;;;6.90;;
6205;SDS011;3136;48.788;9.772;2022-12-24T09:16:14;20.37;;;7.63;;
6205;SDS011;3136;48.788;9.772;2022-12-24T09:18:41;19.20;;;8.10;;
6205;SDS011;3136;48.788;9.772;2022-12-24T09:21:08;14.63;;;7.60;;
6205;SDS011;3136;48.788;9.772;2022-12-24T09:23:38;18.77;;;8.70;;
6205;SDS011;3136;48.788;9.772;2022-12-24T09:26:26;13.87;;;7.97;;
6205;SDS011;3136;48.788;9.772;2022-12-24T09:28:53;19.33;;;8.27;;
6205;SDS011;3136;48.788;9.772;2022-12-24T09:31:20;16.77;;;6.40;;
6205;SDS011;3136;48.788;9.772;2022-12-24T09:33:46;30.20;;;13.10;;
6205;SDS011;3136;48.788;9.772;2022-12-24T09:36:13;30.93;;;12.50;;
6205;SDS011;3136;48.788;9.772;2022-12-24T09:38:39;45.07;;;17.73;;
6205;SDS011;3136;48.788;9.772;2022-12-24T09:41:16;29.93;;;15.07;;
6205;SDS011;3136;48.788;9.772;2022-12-24T09:46:48;26.20;;;12.90;;
6205;SDS011;3136;48.788;9.772;2022-12-24T09:49:18;25.83;;;10.63;;
6205;SDS011;3136;48.788;9.772;2022-12-24T09:51:52;21.67;;;12.17;;
6205;SDS011;3136;48.788;9.772;2022-12-24T09:54:31;31.07;;;12.57;;
6205;SDS011;3136;48.788;9.772;2022-12-24T09:57:03;25.03;;;12.60;;
6205;SDS011;3136;48.788;9.772;2022-12-24T09:59:38;24.90;;;12.53;;
6205;SDS011;3136;48.788;9.772;2022-12-24T10:02:11;20.87;;;11.00;;
6205;SDS011;3136;48.788;9.772;2022-12-24T10:04:39;17.40;;;8.60;;
6205;SDS011;3136;48.788;9.772;2022-12-24T10:12:51;20.93;;;6.60;;
6205;SDS011;3136;48.788;9.772;2022-12-24T10:15:28;11.90;;;4.63;;
6205;SDS011;3136;48.788;9.772;2022-12-24T10:23:10;9.43;;;3.23;;
6205;SDS011;3136;48.788;9.772;2022-12-24T10:28:31;9.13;;;3.77;;
6205;SDS011;3136;48.788;9.772;2022-12-24T10:31:09;12.60;;;3.37;;
6205;SDS011;3136;48.788;9.772;2022-12-24T10:33:37;9.90;;;3.03;;
6205;SDS011;3136;48.788;9.772;2022-12-24T10:36:18;8.97;;;3.00;;
6205;SDS011;3136;48.788;9.772;2022-12-24T10:38:47;9.43;;;3.00;;
6205;SDS011;3136;48.788;9.772;2022-12-24T10:41:13;6.90;;;2.80;;
6205;SDS011;3136;48.788;9.772;2022-12-24T10:43:40;11.63;;;3.03;;
6205;SDS011;3136;48.788;9.772;2022-12-24T10:46:20;16.47;;;2.93;;
6205;SDS011;3136;48.788;9.772;2022-12-24T10:48:56;9.60;;;3.43;;
6205;SDS011;3136;48.788;9.772;2022-12-24T10:54:19;10.97;;;2.80;;
6205;SDS011;3136;48.788;9.772;2022-12-24T10:56:50;13.37;;;3.00;;
6205;SDS011;3136;48.788;9.772;2022-12-24T10:59:22;12.10;;;2.60;;
6205;SDS011;3136;48.788;9.772;2022-12-24T11:01:53;7.83;;;2.17;;
6205;SDS011;3136;48.788;9.772;2022-12-24T11:04:21;9.20;;;2.67;;
6205;SDS011;3136;48.788;9.772;2022-12-24T11:09:20;9.27;;;2.40;;
6205;SDS011;3136;48.788;9.772;2022-12-24T11:11:54;10.53;;;2.60;;
6205;SDS011;3136;48.788;9.772;2022-12-24T11:14:22;9.90;;;2.33;;
6205;SDS011;3136;48.788;9.772;2022-12-24T11:16:50;14.57;;;2.30;;
6205;SDS011;3136;48.788;9.772;2022-12-24T11:19:25;14.93;;;3.13;;
6205;SDS011;3136;48.788;9.772;2022-12-24T11:21:59;7.87;;;2.33;;
6205;SDS011;3136;48.788;9.772;2022-12-24T11:24:46;9.97;;;3.13;;
6205;SDS011;3136;48.788;9.772;2022-12-24T11:32:40;10.87;;;2.63;;
6205;SDS011;3136;48.788;9.772;2022-12-24T11:35:38;9.13;;;2.00;;
6205;SDS011;3136;48.788;9.772;2022-12-24T11:38:10;14.53;;;2.60;;
6205;SDS011;3136;48.788;9.772;2022-12-24T11:40:42;8.37;;;2.20;;
6205;SDS011;3136;48.788;9.772;2022-12-24T11:43:13;10.30;;;2.40;;
6205;SDS011;3136;48.788;9.772;2022-12-24T11:45:52;10.27;;;2.63;;
6205;SDS011;3136;48.788;9.772;2022-12-24T11:48:29;8.83;;;3.00;;
6205;SDS011;3136;48.788;9.772;2022-12-24T11:51:00;9.13;;;2.23;;
6205;SDS011;3136;48.788;9.772;2022-12-24T11:53:35;11.20;;;2.40;;
6205;SDS011;3136;48.788;9.772;2022-12-24T11:56:11;12.80;;;2.80;;
6205;SDS011;3136;48.788;9.772;2022-12-24T11:58:49;12.50;;;2.70;;
6205;SDS011;3136;48.788;9.772;2022-12-24T12:01:26;13.60;;;3.13;;
6205;SDS011;3136;48.788;9.772;2022-12-24T12:03:53;6.57;;;2.23;;
6205;SDS011;3136;48.788;9.772;2022-12-24T12:06:29;9.43;;;2.47;;
6205;SDS011;3136;48.788;9.772;2022-12-24T12:09:03;10.50;;;3.00;;
6205;SDS011;3136;48.788;9.772;2022-12-24T12:11:34;9.97;;;2.63;;
6205;SDS011;3136;48.788;9.772;2022-12-24T12:14:04;11.40;;;2.30;;
6205;SDS011;3136;48.788;9.772;2022-12-24T12:16:39;9.67;;;2.57;;
6205;SDS011;3136;48.788;9.772;2022-12-24T12:19:37;17.70;;;3.00;;
6205;SDS011;3136;48.788;9.772;2022-12-24T12:22:10;8.90;;;2.43;;
6205;SDS011;3136;48.788;9.772;2022-12-24T12:24:52;11.83;;;2.43;;
6205;SDS011;3136;48.788;9.772;2022-12-24T12:30:05;10.73;;;2.63;;
6205;SDS011;3136;48.788;9.772;2022-12-24T12:32:41;15.43;;;2.80;;
6205;SDS011;3136;48.788;9.772;2022-12-24T12:35:27;8.80;;;2.33;;
6205;SDS011;3136;48.788;9.772;2022-12-24T12:37:59;12.53;;;2.93;;
6205;SDS011;3136;48.788;9.772;2022-12-24T12:40:39;8.53;;;2.10;;
6205;SDS011;3136;48.788;9.772;2022-12-24T12:48:55;13.00;;;2.67;;
6205;SDS011;3136;48.788;9.772;2022-12-24T12:51:37;9.53;;;2.30;;
6205;SDS011;3136;48.788;9.772;2022-12-24T12:57:01;10.97;;;2.67;;
6205;SDS011;3136;48.788;9.772;2022-12-24T12:59:36;10.10;;;2.33;;
6205;SDS011;3136;48.788;9.772;2022-12-24T13:02:19;15.87;;;2.90;;
6205;SDS011;3136;48.788;9.772;2022-12-24T13:19:24;12.23;;;2.73;;
6205;SDS011;3136;48.788;9.772;2022-12-24T13:21:54;10.90;;;2.87;;
6205;SDS011;3136;48.788;9.772;2022-12-24T13:24:24;9.73;;;2.43;;
6205;SDS011;3136;48.788;9.772;2022-12-24T13:27:14;11.87;;;2.77;;
6205;SDS011;3136;48.788;9.772;2022-12-24T13:35:00;11.07;;;3.30;;
6205;SDS011;3136;48.788;9.772;2022-12-24T13:42:46;8.17;;;2.23;;
6205;SDS011;3136;48.788;9.772;2022-12-24T13:48:02;11.00;;;4.13;;
6205;SDS011;3136;48.788;9.772;2022-12-24T13:50:53;13.20;;;4.13;;
6205;SDS011;3136;48.788;9.772;2022-12-24T13:53:31;13.53;;;3.13;;
6205;SDS011;3136;48.788;9.772;2022-12-24T13:58:32;11.17;;;4.00;;
6205;SDS011;3136;48.788;9.772;2022-12-24T14:01:03;15.57;;;3.30;;
6205;SDS011;3136;48.788;9.772;2022-12-24T14:03:33;10.20;;;3.30;;
6205;SDS011;3136;48.788;9.772;2022-12-24T14:06:01;13.90;;;4.63;;
6205;SDS011;3136;48.788;9.772;2022-12-24T14:08:34;12.70;;;4.20;;
6205;SDS011;3136;48.788;9.772;2022-12-24T14:18:43;13.13;;;3.90;;
6205;SDS011;3136;48.788;9.772;2022-12-24T14:21:22;12.87;;;3.90;;
6205;SDS011;3136;48.788;9.772;2022-12-24T14:23:53;13.23;;;3.40;;
6205;SDS011;3136;48.788;9.772;2022-12-24T14:26:29;10.13;;;3.23;;
6205;SDS011;3136;48.788;9.772;2022-12-24T14:29:14;12.50;;;3.40;;
6205;SDS011;3136;48.788;9.772;2022-12-24T14:31:53;13.03;;;2.90;;
6205;SDS011;3136;48.788;9.772;2022-12-24T14:34:21;9.57;;;3.00;;
6205;SDS011;3136;48.788;9.772;2022-12-24T14:36:47;9.40;;;2.50;;
6205;SDS011;3136;48.788;9.772;2022-12-24T14:39:21;13.37;;;3.20;;
6205;SDS011;3136;48.788;9.772;2022-12-24T14:44:48;10.23;;;3.27;;
6205;SDS011;3136;48.788;9.772;2022-12-24T14:47:40;11.57;;;3.10;;
6205;SDS011;3136;48.788;9.772;2022-12-24T14:50:35;12.57;;;3.10;;
6205;SDS011;3136;48.788;9.772;2022-12-24T14:55:50;18.03;;;5.10;;
6205;SDS011;3136;48.788;9.772;2022-12-24T15:00:58;12.73;;;6.63;;
6205;SDS011;3136;48.788;9.772;2022-12-24T15:03:30;13.40;;;4.00;;
6205;SDS011;3136;48.788;9.772;2022-12-24T15:06:01;9.93;;;4.10;;
6205;SDS011;3136;48.788;9.772;2022-12-24T15:08:50;8.90;;;3.50;;
6205;SDS011;3136;48.788;9.772;2022-12-24T15:11:15;11.00;;;2.50;;
6205;SDS011;3136;48.788;9.772;2022-12-24T15:13:44;8.20;;;2.60;;
6205;SDS011;3136;48.788;9.772;2022-12-24T15:16:13;12.10;;;3.10;;
6205;SDS011;3136;48.788;9.772;2022-12-24T15:18:46;13.30;;;3.30;;
6205;SDS011;3136;48.788;9.772;2022-12-24T15:21:18;7.60;;;2.70;;
6205;SDS011;3136;48.788;9.772;2022-12-24T15:23:48;10.57;;;2.37;;
6205;SDS011;3136;48.788;9.772;2022-12-24T15:28:48;8.93;;;2.30;;
6205;SDS011;3136;48.788;9.772;2022-12-24T15:31:15;8.13;;;2.30;;
6205;SDS011;3136;48.788;9.772;2022-12-24T15:33:44;16.37;;;6.83;;
6205;SDS011;3136;48.788;9.772;2022-12-24T15:36:15;15.07;;;6.53;;
6205;SDS011;3136;48.788;9.772;2022-12-24T15:39:02;14.20;;;4.70;;
6205;SDS011;3136;48.788;9.772;2022-12-24T15:41:38;7.83;;;4.27;;
6205;SDS011;3136;48.788;9.772;2022-12-24T15:44:28;11.60;;;5.20;;
6205;SDS011;3136;48.788;9.772;2022-12-24T15:46:58;13.60;;;3.00;;
6205;SDS011;3136;48.788;9.772;2022-12-24T15:49:26;8.87;;;2.47;;
6205;SDS011;3136;48.788;9.772;2022-12-24T15:52:00;7.93;;;2.50;;
6205;SDS011;3136;48.788;9.772;2022-12-24T15:54:31;13.10;;;2.57;;
6205;SDS011;3136;48.788;9.772;2022-12-24T15:56:57;12.57;;;3.27;;
6205;SDS011;3136;48.788;9.772;2022-12-24T15:59:35;10.27;;;2.90;;
6205;SDS011;3136;48.788;9.772;2022-12-24T16:07:59;11.23;;;4.43;;
6205;SDS011;3136;48.788;9.772;2022-12-24T16:10:39;13.37;;;4.57;;
6205;SDS011;3136;48.788;9.772;2022-12-24T16:13:13;9.23;;;3.57;;
6205;SDS011;3136;48.788;9.772;2022-12-24T16:15:53;20.50;;;4.17;;
6205;SDS011;3136;48.788;9.772;2022-12-24T16:18:23;7.70;;;3.00;;
6205;SDS011;3136;48.788;9.772;2022-12-24T16:20:51;13.30;;;3.20;;
6205;SDS011;3136;48.788;9.772;2022-12-24T16:23:19;9.27;;;3.10;;
6205;SDS011;3136;48.788;9.772;2022-12-24T16:25:47;13.43;;;3.10;;
6205;SDS011;3136;48.788;9.772;2022-12-24T16:28:14;11.73;;;3.23;;
6205;SDS011;3136;48.788;9.772;2022-12-24T16:30:39;14.77;;;3.70;;
6205;SDS011;3136;48.788;9.772;2022-12-24T16:33:11;10.27;;;3.30;;
6205;SDS011;3136;48.788;9.772;2022-12-24T16:35:38;14.20;;;3.70;;
6205;SDS011;3136;48.788;9.772;2022-12-24T16:38:04;10.87;;;3.50;;
6205;SDS011;3136;48.788;9.772;2022-12-24T16:40:30;10.33;;;3.57;;
6205;SDS011;3136;48.788;9.772;2022-12-24T16:42:55;9.10;;;3.30;;
6205;SDS011;3136;48.788;9.772;2022-12-24T16:45:40;7.23;;;3.07;;
6205;SDS011;3136;48.788;9.772;2022-12-24T16:48:06;12.47;;;3.20;;
6205;SDS011;3136;48.788;9.772;2022-12-24T16:50:33;7.23;;;3.03;;
6205;SDS011;3136;48.788;9.772;2022-12-24T16:52:59;9.93;;;2.83;;
6205;SDS011;3136;48.788;9.772;2022-12-24T16:55:25;10.83;;;3.53;;
6205;SDS011;3136;48.788;9.772;2022-12-24T16:57:50;12.90;;;3.37;;
6205;SDS011;3136;48.788;9.772;2022-12-24T17:00:17;11.27;;;4.23;;
6205;SDS011;3136;48.788;9.772;2022-12-24T17:02:45;12.23;;;3.70;;
6205;SDS011;3136;48.788;9.772;2022-12-24T17:05:12;13.33;;;4.00;;
6205;SDS011;3136;48.788;9.772;2022-12-24T17:07:38;12.53;;;3.13;;
6205;SDS011;3136;48.788;9.772;2022-12-24T17:10:04;10.27;;;3.30;;
6205;SDS011;3136;48.788;9.772;2022-12-24T17:12:30;14.37;;;4.10;;
6205;SDS011;3136;48.788;9.772;2022-12-24T17:14:55;19.23;;;3.77;;